sensor_id;sensor_type;location;lat;lon;timestamp;P1;durP1;ratioP1;P2;durP2;ratioP2
28431;SDS011;15664;51.302;7.744;2022-07-23T00:00:42;30.53;;;12.70;;
28431;SDS011;15664;51.302;7.744;2022-07-23T00:03:08;28.30;;;12.63;;
28431;SDS011;15664;51.302;7.744;2022-07-23T00:05:33;30.20;;;13.23;;
28431;SDS011;15664;51.302;7.744;2022-07-23T00:07:58;31.37;;;12.50;;
28431;SDS011;15664;51.302;7.744;2022-07-23T00:10:23;32.67;;;13.13;;
28431;SDS011;15664;51.302;7.744;2022-07-23T00:12:49;28.23;;;12.43;;
28431;SDS011;15664;51.302;7.744;2022-07-23T00:15:14;31.77;;;13.53;;
28431;SDS011;15664;51.302;7.744;2022-07-23T00:17:39;30.90;;;13.60;;
28431;SDS011;15664;51.302;7.744;2022-07-23T00:20:04;31.37;;;13.33;;
28431;SDS011;15664;51.302;7.744;2022-07-23T00:22:30;32.20;;;13.77;;
28431;SDS011;15664;51.302;7.744;2022-07-23T00:24:55;26.37;;;12.37;;
28431;SDS011;15664;51.302;7.744;2022-07-23T00:27:27;34.98;;;12.90;;
28431;SDS011;15664;51.302;7.744;2022-07-23T00:29:52;29.60;;;12.53;;
28431;SDS011;15664;51.302;7.744;2022-07-23T00:32:17;34.17;;;13.80;;
28431;SDS011;15664;51.302;7.744;2022-07-23T00:34:42;38.73;;;13.90;;
28431;SDS011;15664;51.302;7.744;2022-07-23T00:37:07;33.00;;;13.53;;
28431;SDS011;15664;51.302;7.744;2022-07-23T00:39:33;34.90;;;14.00;;
28431;SDS011;15664;51.302;7.744;2022-07-23T00:41:58;34.77;;;13.87;;
28431;SDS011;15664;51.302;7.744;2022-07-23T00:44:25;39.67;;;14.83;;
28431;SDS011;15664;51.302;7.744;2022-07-23T00:46:52;36.00;;;14.07;;
28431;SDS011;15664;51.302;7.744;2022-07-23T00:49:22;36.47;;;14.63;;
28431;SDS011;15664;51.302;7.744;2022-07-23T00:51:48;36.55;;;14.93;;
28431;SDS011;15664;51.302;7.744;2022-07-23T00:54:14;33.42;;;13.65;;
28431;SDS011;15664;51.302;7.744;2022-07-23T00:56:39;36.33;;;14.43;;
28431;SDS011;15664;51.302;7.744;2022-07-23T00:59:06;39.45;;;14.60;;
28431;SDS011;15664;51.302;7.744;2022-07-23T01:01:32;39.95;;;15.10;;
28431;SDS011;15664;51.302;7.744;2022-07-23T01:03:57;42.40;;;14.60;;
28431;SDS011;15664;51.302;7.744;2022-07-23T01:06:22;36.10;;;14.07;;
28431;SDS011;15664;51.302;7.744;2022-07-23T01:08:48;37.87;;;13.90;;
28431;SDS011;15664;51.302;7.744;2022-07-23T01:11:13;41.73;;;14.60;;
28431;SDS011;15664;51.302;7.744;2022-07-23T01:13:44;38.63;;;14.70;;
28431;SDS011;15664;51.302;7.744;2022-07-23T01:16:10;37.83;;;14.52;;
28431;SDS011;15664;51.302;7.744;2022-07-23T01:18:35;39.23;;;14.80;;
28431;SDS011;15664;51.302;7.744;2022-07-23T01:21:00;38.60;;;14.93;;
28431;SDS011;15664;51.302;7.744;2022-07-23T01:23:26;39.07;;;14.63;;
28431;SDS011;15664;51.302;7.744;2022-07-23T01:25:54;42.33;;;15.52;;
28431;SDS011;15664;51.302;7.744;2022-07-23T01:28:21;43.28;;;16.02;;
28431;SDS011;15664;51.302;7.744;2022-07-23T01:30:48;42.83;;;15.30;;
28431;SDS011;15664;51.302;7.744;2022-07-23T01:33:14;43.53;;;15.87;;
28431;SDS011;15664;51.302;7.744;2022-07-23T01:35:40;40.85;;;14.52;;
28431;SDS011;15664;51.302;7.744;2022-07-23T01:38:06;37.35;;;15.55;;
28431;SDS011;15664;51.302;7.744;2022-07-23T01:40:32;44.73;;;15.33;;
28431;SDS011;15664;51.302;7.744;2022-07-23T01:42:59;44.40;;;15.68;;
28431;SDS011;15664;51.302;7.744;2022-07-23T01:45:24;43.83;;;15.53;;
28431;SDS011;15664;51.302;7.744;2022-07-23T01:47:50;40.90;;;14.25;;
28431;SDS011;15664;51.302;7.744;2022-07-23T01:50:16;38.53;;;13.87;;
28431;SDS011;15664;51.302;7.744;2022-07-23T01:52:57;35.63;;;12.57;;
28431;SDS011;15664;51.302;7.744;2022-07-23T01:55:23;35.30;;;12.33;;
28431;SDS011;15664;51.302;7.744;2022-07-23T01:57:48;36.63;;;12.03;;
28431;SDS011;15664;51.302;7.744;2022-07-23T02:00:17;36.03;;;11.82;;
28431;SDS011;15664;51.302;7.744;2022-07-23T02:02:46;31.35;;;12.20;;
28431;SDS011;15664;51.302;7.744;2022-07-23T02:05:11;32.73;;;11.20;;
28431;SDS011;15664;51.302;7.744;2022-07-23T02:07:37;31.00;;;11.57;;
28431;SDS011;15664;51.302;7.744;2022-07-23T02:10:02;33.67;;;11.27;;
28431;SDS011;15664;51.302;7.744;2022-07-23T02:12:27;21.93;;;9.40;;
28431;SDS011;15664;51.302;7.744;2022-07-23T02:14:52;20.97;;;8.47;;
28431;SDS011;15664;51.302;7.744;2022-07-23T02:17:18;25.07;;;8.37;;
28431;SDS011;15664;51.302;7.744;2022-07-23T02:19:43;18.03;;;7.33;;
28431;SDS011;15664;51.302;7.744;2022-07-23T02:22:08;18.60;;;7.57;;
28431;SDS011;15664;51.302;7.744;2022-07-23T02:24:33;24.50;;;8.03;;
28431;SDS011;15664;51.302;7.744;2022-07-23T02:26:59;23.55;;;8.40;;
28431;SDS011;15664;51.302;7.744;2022-07-23T02:29:24;24.00;;;8.57;;
28431;SDS011;15664;51.302;7.744;2022-07-23T02:31:52;19.42;;;7.85;;
28431;SDS011;15664;51.302;7.744;2022-07-23T02:34:17;21.63;;;8.00;;
28431;SDS011;15664;51.302;7.744;2022-07-23T02:36:43;19.97;;;7.73;;
28431;SDS011;15664;51.302;7.744;2022-07-23T02:39:08;21.97;;;9.13;;
28431;SDS011;15664;51.302;7.744;2022-07-23T02:41:35;21.17;;;8.30;;
28431;SDS011;15664;51.302;7.744;2022-07-23T02:44:00;21.57;;;8.17;;
28431;SDS011;15664;51.302;7.744;2022-07-23T02:46:26;19.67;;;8.73;;
28431;SDS011;15664;51.302;7.744;2022-07-23T02:48:52;23.33;;;9.02;;
28431;SDS011;15664;51.302;7.744;2022-07-23T02:51:17;23.80;;;8.90;;
28431;SDS011;15664;51.302;7.744;2022-07-23T02:53:50;21.25;;;8.60;;
28431;SDS011;15664;51.302;7.744;2022-07-23T02:56:15;20.90;;;8.97;;
28431;SDS011;15664;51.302;7.744;2022-07-23T02:58:41;26.48;;;9.57;;
28431;SDS011;15664;51.302;7.744;2022-07-23T03:01:06;23.67;;;9.35;;
28431;SDS011;15664;51.302;7.744;2022-07-23T03:03:31;23.67;;;9.47;;
28431;SDS011;15664;51.302;7.744;2022-07-23T03:05:56;25.15;;;9.35;;
28431;SDS011;15664;51.302;7.744;2022-07-23T03:08:23;40.63;;;12.93;;
28431;SDS011;15664;51.302;7.744;2022-07-23T03:10:50;45.00;;;13.48;;
28431;SDS011;15664;51.302;7.744;2022-07-23T03:13:16;36.60;;;11.93;;
28431;SDS011;15664;51.302;7.744;2022-07-23T03:15:41;27.60;;;10.18;;
28431;SDS011;15664;51.302;7.744;2022-07-23T03:18:06;26.47;;;10.20;;
28431;SDS011;15664;51.302;7.744;2022-07-23T03:20:32;30.87;;;10.43;;
28431;SDS011;15664;51.302;7.744;2022-07-23T03:22:57;30.80;;;11.30;;
28431;SDS011;15664;51.302;7.744;2022-07-23T03:25:22;33.93;;;11.27;;
28431;SDS011;15664;51.302;7.744;2022-07-23T03:27:48;32.87;;;11.17;;
28431;SDS011;15664;51.302;7.744;2022-07-23T03:30:13;33.87;;;11.87;;
28431;SDS011;15664;51.302;7.744;2022-07-23T03:32:38;43.73;;;13.43;;
28431;SDS011;15664;51.302;7.744;2022-07-23T03:35:04;52.30;;;15.55;;
28431;SDS011;15664;51.302;7.744;2022-07-23T03:37:30;46.55;;;14.60;;
28431;SDS011;15664;51.302;7.744;2022-07-23T03:39:57;43.13;;;14.83;;
28431;SDS011;15664;51.302;7.744;2022-07-23T03:42:22;40.25;;;13.35;;
28431;SDS011;15664;51.302;7.744;2022-07-23T03:44:48;39.67;;;12.47;;
28431;SDS011;15664;51.302;7.744;2022-07-23T03:47:13;35.40;;;12.70;;
28431;SDS011;15664;51.302;7.744;2022-07-23T03:49:38;38.78;;;13.38;;
28431;SDS011;15664;51.302;7.744;2022-07-23T03:52:03;42.13;;;12.73;;
28431;SDS011;15664;51.302;7.744;2022-07-23T03:54:29;43.13;;;14.38;;
28431;SDS011;15664;51.302;7.744;2022-07-23T03:56:55;40.50;;;12.60;;
28431;SDS011;15664;51.302;7.744;2022-07-23T03:59:21;38.30;;;12.50;;
28431;SDS011;15664;51.302;7.744;2022-07-23T04:01:46;38.10;;;12.17;;
28431;SDS011;15664;51.302;7.744;2022-07-23T04:04:11;39.13;;;12.47;;
28431;SDS011;15664;51.302;7.744;2022-07-23T04:06:39;60.38;;;14.00;;
28431;SDS011;15664;51.302;7.744;2022-07-23T04:09:04;61.37;;;13.07;;
28431;SDS011;15664;51.302;7.744;2022-07-23T04:11:31;72.68;;;12.40;;
28431;SDS011;15664;51.302;7.744;2022-07-23T04:13:56;136.63;;;14.30;;
28431;SDS011;15664;51.302;7.744;2022-07-23T04:16:22;49.17;;;11.97;;
28431;SDS011;15664;51.302;7.744;2022-07-23T04:18:48;68.85;;;13.48;;
28431;SDS011;15664;51.302;7.744;2022-07-23T04:21:17;34.55;;;10.07;;
28431;SDS011;15664;51.302;7.744;2022-07-23T04:23:44;33.70;;;11.57;;
28431;SDS011;15664;51.302;7.744;2022-07-23T04:26:09;34.43;;;11.83;;
28431;SDS011;15664;51.302;7.744;2022-07-23T04:28:34;29.10;;;10.87;;
28431;SDS011;15664;51.302;7.744;2022-07-23T04:31:00;34.20;;;12.07;;
28431;SDS011;15664;51.302;7.744;2022-07-23T04:33:26;29.43;;;10.90;;
28431;SDS011;15664;51.302;7.744;2022-07-23T04:35:54;32.28;;;10.75;;
28431;SDS011;15664;51.302;7.744;2022-07-23T04:38:19;33.13;;;12.27;;
28431;SDS011;15664;51.302;7.744;2022-07-23T04:40:47;31.27;;;10.18;;
28431;SDS011;15664;51.302;7.744;2022-07-23T04:43:12;55.23;;;12.93;;
28431;SDS011;15664;51.302;7.744;2022-07-23T04:45:45;84.63;;;11.55;;
28431;SDS011;15664;51.302;7.744;2022-07-23T04:48:11;119.40;;;13.47;;
28431;SDS011;15664;51.302;7.744;2022-07-23T04:50:37;38.57;;;11.30;;
28431;SDS011;15664;51.302;7.744;2022-07-23T04:53:03;25.45;;;9.05;;
28431;SDS011;15664;51.302;7.744;2022-07-23T04:55:29;27.67;;;9.37;;
28431;SDS011;15664;51.302;7.744;2022-07-23T04:57:54;25.93;;;8.60;;
28431;SDS011;15664;51.302;7.744;2022-07-23T05:00:19;23.55;;;8.65;;
28431;SDS011;15664;51.302;7.744;2022-07-23T05:02:45;24.23;;;9.25;;
28431;SDS011;15664;51.302;7.744;2022-07-23T05:05:10;21.67;;;8.70;;
28431;SDS011;15664;51.302;7.744;2022-07-23T05:07:35;30.20;;;9.53;;
28431;SDS011;15664;51.302;7.744;2022-07-23T05:10:01;21.83;;;7.53;;
28431;SDS011;15664;51.302;7.744;2022-07-23T05:12:28;25.08;;;9.13;;
28431;SDS011;15664;51.302;7.744;2022-07-23T05:14:53;22.83;;;8.47;;
28431;SDS011;15664;51.302;7.744;2022-07-23T05:17:19;21.92;;;7.88;;
28431;SDS011;15664;51.302;7.744;2022-07-23T05:19:44;23.43;;;9.43;;
28431;SDS011;15664;51.302;7.744;2022-07-23T05:22:09;21.80;;;8.53;;
28431;SDS011;15664;51.302;7.744;2022-07-23T05:24:35;28.77;;;9.37;;
28431;SDS011;15664;51.302;7.744;2022-07-23T05:27:01;22.60;;;9.43;;
28431;SDS011;15664;51.302;7.744;2022-07-23T05:29:26;25.30;;;8.90;;
28431;SDS011;15664;51.302;7.744;2022-07-23T05:31:51;24.13;;;9.00;;
28431;SDS011;15664;51.302;7.744;2022-07-23T05:34:17;23.80;;;8.87;;
28431;SDS011;15664;51.302;7.744;2022-07-23T05:36:42;20.23;;;7.47;;
28431;SDS011;15664;51.302;7.744;2022-07-23T05:39:09;23.00;;;8.63;;
28431;SDS011;15664;51.302;7.744;2022-07-23T05:41:35;19.80;;;8.10;;
28431;SDS011;15664;51.302;7.744;2022-07-23T05:44:02;21.03;;;7.83;;
28431;SDS011;15664;51.302;7.744;2022-07-23T05:46:28;24.20;;;8.85;;
28431;SDS011;15664;51.302;7.744;2022-07-23T05:48:57;21.48;;;8.85;;
28431;SDS011;15664;51.302;7.744;2022-07-23T05:51:41;22.17;;;8.50;;
28431;SDS011;15664;51.302;7.744;2022-07-23T05:54:07;22.27;;;8.70;;
28431;SDS011;15664;51.302;7.744;2022-07-23T05:56:36;23.00;;;8.77;;
28431;SDS011;15664;51.302;7.744;2022-07-23T05:59:01;28.03;;;9.43;;
28431;SDS011;15664;51.302;7.744;2022-07-23T06:01:26;21.33;;;8.70;;
28431;SDS011;15664;51.302;7.744;2022-07-23T06:03:59;21.02;;;8.15;;
28431;SDS011;15664;51.302;7.744;2022-07-23T06:06:31;22.77;;;8.60;;
28431;SDS011;15664;51.302;7.744;2022-07-23T06:08:57;19.80;;;8.53;;
28431;SDS011;15664;51.302;7.744;2022-07-23T06:11:22;20.20;;;8.40;;
28431;SDS011;15664;51.302;7.744;2022-07-23T06:13:47;20.80;;;7.83;;
28431;SDS011;15664;51.302;7.744;2022-07-23T06:16:13;18.40;;;7.63;;
28431;SDS011;15664;51.302;7.744;2022-07-23T06:18:38;19.47;;;8.00;;
28431;SDS011;15664;51.302;7.744;2022-07-23T06:21:03;19.57;;;8.17;;
28431;SDS011;15664;51.302;7.744;2022-07-23T06:23:31;18.70;;;8.18;;
28431;SDS011;15664;51.302;7.744;2022-07-23T06:25:56;21.57;;;8.73;;
28431;SDS011;15664;51.302;7.744;2022-07-23T06:28:21;19.43;;;7.87;;
28431;SDS011;15664;51.302;7.744;2022-07-23T06:30:46;21.13;;;8.60;;
28431;SDS011;15664;51.302;7.744;2022-07-23T06:33:11;17.40;;;8.40;;
28431;SDS011;15664;51.302;7.744;2022-07-23T06:35:37;19.63;;;8.50;;
28431;SDS011;15664;51.302;7.744;2022-07-23T06:38:05;18.10;;;7.63;;
28431;SDS011;15664;51.302;7.744;2022-07-23T06:40:30;18.33;;;8.07;;
28431;SDS011;15664;51.302;7.744;2022-07-23T06:42:55;17.90;;;7.73;;
28431;SDS011;15664;51.302;7.744;2022-07-23T06:45:21;17.10;;;7.22;;
28431;SDS011;15664;51.302;7.744;2022-07-23T06:47:47;17.10;;;6.97;;
28431;SDS011;15664;51.302;7.744;2022-07-23T06:50:12;15.17;;;7.10;;
28431;SDS011;15664;51.302;7.744;2022-07-23T06:52:37;17.90;;;6.67;;
28431;SDS011;15664;51.302;7.744;2022-07-23T06:55:04;24.13;;;7.60;;
28431;SDS011;15664;51.302;7.744;2022-07-23T06:57:30;15.87;;;6.80;;
28431;SDS011;15664;51.302;7.744;2022-07-23T06:59:55;11.80;;;5.67;;
28431;SDS011;15664;51.302;7.744;2022-07-23T07:02:20;16.17;;;6.40;;
28431;SDS011;15664;51.302;7.744;2022-07-23T07:04:46;13.05;;;5.88;;
28431;SDS011;15664;51.302;7.744;2022-07-23T07:07:11;14.30;;;5.90;;
28431;SDS011;15664;51.302;7.744;2022-07-23T07:09:37;12.05;;;6.18;;
28431;SDS011;15664;51.302;7.744;2022-07-23T07:12:02;12.90;;;5.93;;
28431;SDS011;15664;51.302;7.744;2022-07-23T07:14:28;11.03;;;5.47;;
28431;SDS011;15664;51.302;7.744;2022-07-23T07:16:53;11.33;;;5.60;;
28431;SDS011;15664;51.302;7.744;2022-07-23T07:19:18;14.37;;;5.97;;
28431;SDS011;15664;51.302;7.744;2022-07-23T07:21:43;12.60;;;5.70;;
28431;SDS011;15664;51.302;7.744;2022-07-23T07:24:09;10.93;;;5.13;;
28431;SDS011;15664;51.302;7.744;2022-07-23T07:26:34;12.13;;;5.80;;
28431;SDS011;15664;51.302;7.744;2022-07-23T07:28:59;10.67;;;5.73;;
28431;SDS011;15664;51.302;7.744;2022-07-23T07:31:25;10.23;;;5.40;;
28431;SDS011;15664;51.302;7.744;2022-07-23T07:33:50;13.00;;;6.07;;
28431;SDS011;15664;51.302;7.744;2022-07-23T07:36:15;10.67;;;5.23;;
28431;SDS011;15664;51.302;7.744;2022-07-23T07:38:40;12.07;;;5.85;;
28431;SDS011;15664;51.302;7.744;2022-07-23T07:41:06;11.38;;;6.10;;
28431;SDS011;15664;51.302;7.744;2022-07-23T07:43:32;12.65;;;5.93;;
28431;SDS011;15664;51.302;7.744;2022-07-23T07:45:58;12.13;;;6.00;;
28431;SDS011;15664;51.302;7.744;2022-07-23T07:48:24;13.32;;;6.50;;
28431;SDS011;15664;51.302;7.744;2022-07-23T07:50:49;10.57;;;5.20;;
28431;SDS011;15664;51.302;7.744;2022-07-23T07:53:14;11.10;;;5.77;;
28431;SDS011;15664;51.302;7.744;2022-07-23T07:55:39;13.60;;;6.50;;
28431;SDS011;15664;51.302;7.744;2022-07-23T07:58:04;14.03;;;6.67;;
28431;SDS011;15664;51.302;7.744;2022-07-23T08:00:30;16.13;;;6.97;;
28431;SDS011;15664;51.302;7.744;2022-07-23T08:02:55;18.80;;;7.88;;
28431;SDS011;15664;51.302;7.744;2022-07-23T08:05:27;15.87;;;7.33;;
28431;SDS011;15664;51.302;7.744;2022-07-23T08:07:52;14.57;;;7.23;;
28431;SDS011;15664;51.302;7.744;2022-07-23T08:10:18;19.60;;;7.93;;
28431;SDS011;15664;51.302;7.744;2022-07-23T08:15:10;20.70;;;9.60;;
28431;SDS011;15664;51.302;7.744;2022-07-23T08:17:35;17.30;;;8.00;;
28431;SDS011;15664;51.302;7.744;2022-07-23T08:20:01;18.00;;;8.57;;
28431;SDS011;15664;51.302;7.744;2022-07-23T08:22:40;18.17;;;8.37;;
28431;SDS011;15664;51.302;7.744;2022-07-23T08:25:05;16.85;;;7.70;;
28431;SDS011;15664;51.302;7.744;2022-07-23T08:27:31;17.80;;;8.23;;
28431;SDS011;15664;51.302;7.744;2022-07-23T08:29:56;17.77;;;8.10;;
28431;SDS011;15664;51.302;7.744;2022-07-23T08:32:21;15.30;;;7.53;;
28431;SDS011;15664;51.302;7.744;2022-07-23T08:34:46;15.33;;;7.60;;
28431;SDS011;15664;51.302;7.744;2022-07-23T08:37:11;16.00;;;7.90;;
28431;SDS011;15664;51.302;7.744;2022-07-23T08:39:36;16.67;;;7.60;;
28431;SDS011;15664;51.302;7.744;2022-07-23T08:42:02;14.63;;;7.40;;
28431;SDS011;15664;51.302;7.744;2022-07-23T08:44:27;14.53;;;6.97;;
28431;SDS011;15664;51.302;7.744;2022-07-23T08:46:52;12.25;;;6.50;;
28431;SDS011;15664;51.302;7.744;2022-07-23T08:49:17;14.70;;;7.15;;
28431;SDS011;15664;51.302;7.744;2022-07-23T08:51:43;12.77;;;7.30;;
28431;SDS011;15664;51.302;7.744;2022-07-23T08:54:08;11.57;;;6.03;;
28431;SDS011;15664;51.302;7.744;2022-07-23T08:56:33;11.93;;;6.13;;
28431;SDS011;15664;51.302;7.744;2022-07-23T08:59:00;11.00;;;6.13;;
28431;SDS011;15664;51.302;7.744;2022-07-23T09:01:25;13.40;;;6.20;;
28431;SDS011;15664;51.302;7.744;2022-07-23T09:03:50;14.77;;;7.10;;
28431;SDS011;15664;51.302;7.744;2022-07-23T09:06:15;15.47;;;8.40;;
28431;SDS011;15664;51.302;7.744;2022-07-23T09:08:41;15.63;;;8.27;;
28431;SDS011;15664;51.302;7.744;2022-07-23T09:11:08;17.60;;;8.60;;
28431;SDS011;15664;51.302;7.744;2022-07-23T09:13:46;14.15;;;7.80;;
28431;SDS011;15664;51.302;7.744;2022-07-23T09:16:16;12.43;;;6.50;;
28431;SDS011;15664;51.302;7.744;2022-07-23T09:18:43;13.57;;;7.10;;
28431;SDS011;15664;51.302;7.744;2022-07-23T09:21:13;12.32;;;7.20;;
28431;SDS011;15664;51.302;7.744;2022-07-23T09:23:40;13.38;;;7.40;;
28431;SDS011;15664;51.302;7.744;2022-07-23T09:26:25;17.15;;;7.63;;
28431;SDS011;15664;51.302;7.744;2022-07-23T09:28:54;17.27;;;8.77;;
28431;SDS011;15664;51.302;7.744;2022-07-23T09:31:21;16.55;;;8.77;;
28431;SDS011;15664;51.302;7.744;2022-07-23T09:33:46;16.97;;;8.30;;
28431;SDS011;15664;51.302;7.744;2022-07-23T09:36:11;16.47;;;8.27;;
28431;SDS011;15664;51.302;7.744;2022-07-23T09:38:47;14.02;;;7.20;;
28431;SDS011;15664;51.302;7.744;2022-07-23T09:41:12;15.45;;;7.80;;
28431;SDS011;15664;51.302;7.744;2022-07-23T09:43:38;17.38;;;8.48;;
28431;SDS011;15664;51.302;7.744;2022-07-23T09:46:16;21.48;;;10.15;;
28431;SDS011;15664;51.302;7.744;2022-07-23T09:48:41;16.30;;;8.47;;
28431;SDS011;15664;51.302;7.744;2022-07-23T09:51:06;17.03;;;7.93;;
28431;SDS011;15664;51.302;7.744;2022-07-23T09:53:32;15.93;;;8.97;;
28431;SDS011;15664;51.302;7.744;2022-07-23T09:55:57;17.63;;;8.70;;
28431;SDS011;15664;51.302;7.744;2022-07-23T09:58:23;16.00;;;8.48;;
28431;SDS011;15664;51.302;7.744;2022-07-23T10:00:51;16.83;;;9.07;;
28431;SDS011;15664;51.302;7.744;2022-07-23T10:03:17;21.00;;;9.90;;
28431;SDS011;15664;51.302;7.744;2022-07-23T10:06:03;17.13;;;9.30;;
28431;SDS011;15664;51.302;7.744;2022-07-23T10:08:29;17.17;;;9.63;;
28431;SDS011;15664;51.302;7.744;2022-07-23T10:11:01;16.17;;;9.05;;
28431;SDS011;15664;51.302;7.744;2022-07-23T10:13:46;16.25;;;9.07;;
28431;SDS011;15664;51.302;7.744;2022-07-23T10:16:27;18.15;;;9.02;;
28431;SDS011;15664;51.302;7.744;2022-07-23T10:18:52;17.50;;;9.40;;
28431;SDS011;15664;51.302;7.744;2022-07-23T10:21:25;18.30;;;9.47;;
28431;SDS011;15664;51.302;7.744;2022-07-23T10:23:58;19.48;;;10.73;;
28431;SDS011;15664;51.302;7.744;2022-07-23T10:26:35;17.88;;;10.07;;
28431;SDS011;15664;51.302;7.744;2022-07-23T10:29:02;19.05;;;9.93;;
28431;SDS011;15664;51.302;7.744;2022-07-23T10:31:43;20.35;;;11.30;;
28431;SDS011;15664;51.302;7.744;2022-07-23T10:34:15;20.23;;;10.82;;
28431;SDS011;15664;51.302;7.744;2022-07-23T10:36:46;21.23;;;11.20;;
28431;SDS011;15664;51.302;7.744;2022-07-23T10:39:22;21.45;;;10.73;;
28431;SDS011;15664;51.302;7.744;2022-07-23T10:41:48;16.52;;;9.65;;
28431;SDS011;15664;51.302;7.744;2022-07-23T10:44:18;18.93;;;10.23;;
28431;SDS011;15664;51.302;7.744;2022-07-23T10:46:55;17.25;;;9.73;;
28431;SDS011;15664;51.302;7.744;2022-07-23T10:49:43;19.05;;;9.55;;
28431;SDS011;15664;51.302;7.744;2022-07-23T10:54:40;18.63;;;9.55;;
28431;SDS011;15664;51.302;7.744;2022-07-23T10:57:06;16.30;;;9.37;;
28431;SDS011;15664;51.302;7.744;2022-07-23T10:59:43;16.25;;;9.77;;
28431;SDS011;15664;51.302;7.744;2022-07-23T11:02:20;19.35;;;10.52;;
28431;SDS011;15664;51.302;7.744;2022-07-23T11:04:49;19.40;;;11.18;;
28431;SDS011;15664;51.302;7.744;2022-07-23T11:07:15;20.33;;;11.35;;
28431;SDS011;15664;51.302;7.744;2022-07-23T11:09:41;18.65;;;10.85;;
28431;SDS011;15664;51.302;7.744;2022-07-23T11:17:22;15.65;;;9.13;;
28431;SDS011;15664;51.302;7.744;2022-07-23T11:25:09;14.73;;;8.90;;
28431;SDS011;15664;51.302;7.744;2022-07-23T11:27:41;15.82;;;9.75;;
28431;SDS011;15664;51.302;7.744;2022-07-23T11:30:07;16.35;;;9.38;;
28431;SDS011;15664;51.302;7.744;2022-07-23T11:32:33;15.57;;;9.13;;
28431;SDS011;15664;51.302;7.744;2022-07-23T11:34:59;14.65;;;8.15;;
28431;SDS011;15664;51.302;7.744;2022-07-23T11:37:29;14.52;;;9.13;;
28431;SDS011;15664;51.302;7.744;2022-07-23T11:39:56;16.58;;;9.45;;
28431;SDS011;15664;51.302;7.744;2022-07-23T11:42:22;14.75;;;9.38;;
28431;SDS011;15664;51.302;7.744;2022-07-23T11:44:48;15.10;;;8.60;;
28431;SDS011;15664;51.302;7.744;2022-07-23T11:47:13;13.57;;;7.33;;
28431;SDS011;15664;51.302;7.744;2022-07-23T11:49:38;12.37;;;7.50;;
28431;SDS011;15664;51.302;7.744;2022-07-23T11:52:09;13.90;;;8.50;;
28431;SDS011;15664;51.302;7.744;2022-07-23T11:54:36;13.68;;;8.20;;
28431;SDS011;15664;51.302;7.744;2022-07-23T11:57:02;14.55;;;8.77;;
28431;SDS011;15664;51.302;7.744;2022-07-23T11:59:31;13.27;;;8.17;;
28431;SDS011;15664;51.302;7.744;2022-07-23T12:02:01;12.88;;;7.68;;
28431;SDS011;15664;51.302;7.744;2022-07-23T12:04:37;12.90;;;7.68;;
28431;SDS011;15664;51.302;7.744;2022-07-23T12:07:03;14.98;;;7.65;;
28431;SDS011;15664;51.302;7.744;2022-07-23T12:09:28;15.90;;;8.60;;
28431;SDS011;15664;51.302;7.744;2022-07-23T12:11:57;13.13;;;8.70;;
28431;SDS011;15664;51.302;7.744;2022-07-23T12:14:23;13.32;;;7.85;;
28431;SDS011;15664;51.302;7.744;2022-07-23T12:17:06;11.70;;;7.33;;
28431;SDS011;15664;51.302;7.744;2022-07-23T12:19:31;12.98;;;7.43;;
28431;SDS011;15664;51.302;7.744;2022-07-23T12:21:56;12.57;;;7.80;;
28431;SDS011;15664;51.302;7.744;2022-07-23T12:24:22;10.90;;;6.83;;
28431;SDS011;15664;51.302;7.744;2022-07-23T12:29:35;10.27;;;6.57;;
28431;SDS011;15664;51.302;7.744;2022-07-23T12:32:00;9.05;;;6.03;;
28431;SDS011;15664;51.302;7.744;2022-07-23T12:34:25;9.73;;;6.00;;
28431;SDS011;15664;51.302;7.744;2022-07-23T12:36:51;12.20;;;6.73;;
28431;SDS011;15664;51.302;7.744;2022-07-23T12:39:29;11.03;;;6.93;;
28431;SDS011;15664;51.302;7.744;2022-07-23T12:41:54;11.25;;;6.93;;
28431;SDS011;15664;51.302;7.744;2022-07-23T12:44:21;9.43;;;6.03;;
28431;SDS011;15664;51.302;7.744;2022-07-23T12:46:49;10.82;;;6.30;;
28431;SDS011;15664;51.302;7.744;2022-07-23T12:49:24;9.23;;;5.53;;
28431;SDS011;15664;51.302;7.744;2022-07-23T12:51:49;8.65;;;5.10;;
28431;SDS011;15664;51.302;7.744;2022-07-23T12:54:15;7.50;;;4.63;;
28431;SDS011;15664;51.302;7.744;2022-07-23T12:56:43;9.70;;;5.53;;
28431;SDS011;15664;51.302;7.744;2022-07-23T12:59:10;8.23;;;4.53;;
28431;SDS011;15664;51.302;7.744;2022-07-23T13:01:36;8.20;;;5.28;;
28431;SDS011;15664;51.302;7.744;2022-07-23T13:04:13;9.80;;;5.70;;
28431;SDS011;15664;51.302;7.744;2022-07-23T13:09:05;8.35;;;4.55;;
28431;SDS011;15664;51.302;7.744;2022-07-23T13:11:31;7.27;;;4.57;;
28431;SDS011;15664;51.302;7.744;2022-07-23T13:13:56;7.85;;;4.75;;
28431;SDS011;15664;51.302;7.744;2022-07-23T13:16:22;9.63;;;5.30;;
28431;SDS011;15664;51.302;7.744;2022-07-23T13:18:47;9.43;;;5.03;;
28431;SDS011;15664;51.302;7.744;2022-07-23T13:21:12;8.27;;;4.57;;
28431;SDS011;15664;51.302;7.744;2022-07-23T13:23:38;7.83;;;4.97;;
28431;SDS011;15664;51.302;7.744;2022-07-23T13:26:03;9.53;;;4.87;;
28431;SDS011;15664;51.302;7.744;2022-07-23T13:28:28;9.07;;;4.67;;
28431;SDS011;15664;51.302;7.744;2022-07-23T13:30:54;7.40;;;4.90;;
28431;SDS011;15664;51.302;7.744;2022-07-23T13:33:20;8.37;;;4.57;;
28431;SDS011;15664;51.302;7.744;2022-07-23T13:35:46;7.95;;;4.75;;
28431;SDS011;15664;51.302;7.744;2022-07-23T13:38:11;8.75;;;5.00;;
28431;SDS011;15664;51.302;7.744;2022-07-23T13:40:37;8.70;;;5.20;;
28431;SDS011;15664;51.302;7.744;2022-07-23T13:43:04;7.30;;;4.78;;
28431;SDS011;15664;51.302;7.744;2022-07-23T13:45:29;7.30;;;4.90;;
28431;SDS011;15664;51.302;7.744;2022-07-23T13:47:54;11.70;;;5.77;;
28431;SDS011;15664;51.302;7.744;2022-07-23T13:50:19;8.40;;;5.47;;
28431;SDS011;15664;51.302;7.744;2022-07-23T13:52:45;6.90;;;4.97;;
28431;SDS011;15664;51.302;7.744;2022-07-23T13:55:10;8.43;;;5.47;;
28431;SDS011;15664;51.302;7.744;2022-07-23T13:57:35;6.93;;;5.03;;
28431;SDS011;15664;51.302;7.744;2022-07-23T14:00:01;8.00;;;5.85;;
28431;SDS011;15664;51.302;7.744;2022-07-23T14:02:29;8.20;;;5.10;;
28431;SDS011;15664;51.302;7.744;2022-07-23T14:04:54;9.53;;;4.93;;
28431;SDS011;15664;51.302;7.744;2022-07-23T14:07:20;8.60;;;5.20;;
28431;SDS011;15664;51.302;7.744;2022-07-23T14:09:45;9.20;;;5.78;;
28431;SDS011;15664;51.302;7.744;2022-07-23T14:12:10;9.27;;;5.77;;
28431;SDS011;15664;51.302;7.744;2022-07-23T14:14:36;7.97;;;5.27;;
28431;SDS011;15664;51.302;7.744;2022-07-23T14:17:01;8.43;;;5.60;;
28431;SDS011;15664;51.302;7.744;2022-07-23T14:19:26;9.73;;;5.53;;
28431;SDS011;15664;51.302;7.744;2022-07-23T14:21:51;9.13;;;6.30;;
28431;SDS011;15664;51.302;7.744;2022-07-23T14:24:17;8.03;;;5.50;;
28431;SDS011;15664;51.302;7.744;2022-07-23T14:26:42;9.17;;;5.50;;
28431;SDS011;15664;51.302;7.744;2022-07-23T14:29:07;9.40;;;5.30;;
28431;SDS011;15664;51.302;7.744;2022-07-23T14:31:33;8.27;;;5.00;;
28431;SDS011;15664;51.302;7.744;2022-07-23T14:33:58;9.93;;;5.17;;
28431;SDS011;15664;51.302;7.744;2022-07-23T14:36:24;8.00;;;4.57;;
28431;SDS011;15664;51.302;7.744;2022-07-23T14:38:50;8.32;;;4.72;;
28431;SDS011;15664;51.302;7.744;2022-07-23T14:41:15;8.40;;;4.30;;
28431;SDS011;15664;51.302;7.744;2022-07-23T14:43:40;6.93;;;3.77;;
28431;SDS011;15664;51.302;7.744;2022-07-23T14:46:07;7.90;;;4.63;;
28431;SDS011;15664;51.302;7.744;2022-07-23T14:48:32;9.97;;;4.87;;
28431;SDS011;15664;51.302;7.744;2022-07-23T14:50:57;8.47;;;4.27;;